createdAt,value
2024-01-06T00:00:24.774Z,-0.64
2024-01-06T00:02:51.917Z,-0.69
2024-01-06T00:05:18.494Z,-0.67
2024-01-06T00:07:45.444Z,-0.67
2024-01-06T00:10:14.063Z,-0.62
2024-01-06T00:12:44.078Z,-0.61
2024-01-06T00:15:12.242Z,-0.55
2024-01-06T00:17:38.991Z,-0.52
2024-01-06T00:20:06.235Z,-0.55
2024-01-06T00:22:32.866Z,-0.59
2024-01-06T00:24:59.759Z,-0.58
2024-01-06T00:27:26.436Z,-0.57
2024-01-06T00:29:53.469Z,-0.56
2024-01-06T00:32:20.758Z,-0.49
2024-01-06T00:34:48.733Z,-0.45
2024-01-06T00:37:15.594Z,-0.43
2024-01-06T00:39:42.429Z,-0.45
2024-01-06T00:42:11.523Z,-0.44
2024-01-06T00:44:39.071Z,-0.43
2024-01-06T00:47:09.144Z,-0.39
2024-01-06T00:49:36.143Z,-0.39
2024-01-06T00:52:03.290Z,-0.44
2024-01-06T00:54:32.857Z,-0.49
2024-01-06T00:56:59.698Z,-0.48
2024-01-06T00:59:26.662Z,-0.45
2024-01-06T01:01:53.712Z,-0.40
2024-01-06T01:04:20.771Z,-0.40
2024-01-06T01:06:47.857Z,-0.35
2024-01-06T01:09:15.775Z,-0.36
2024-01-06T01:11:42.864Z,-0.36
2024-01-06T01:14:13.537Z,-0.37
2024-01-06T01:16:40.146Z,-0.38
2024-01-06T01:19:07.157Z,-0.37
2024-01-06T01:21:35.328Z,-0.40
2024-01-06T01:24:08.755Z,-0.45
2024-01-06T01:26:35.795Z,-0.44
2024-01-06T01:29:02.448Z,-0.47
2024-01-06T01:31:29.478Z,-0.46
2024-01-06T01:33:56.136Z,-0.43
2024-01-06T01:36:25.459Z,-0.39
2024-01-06T01:38:52.124Z,-0.38
2024-01-06T01:41:19.091Z,-0.40
2024-01-06T01:43:47.955Z,-0.39
2024-01-06T01:46:15.596Z,-0.41
2024-01-06T01:48:42.765Z,-0.40
2024-01-06T01:51:10.502Z,-0.39
2024-01-06T01:53:37.912Z,-0.37
2024-01-06T01:56:05.523Z,-0.39
2024-01-06T01:58:33.617Z,-0.39
2024-01-06T02:01:00.561Z,-0.38
2024-01-06T02:03:27.830Z,-0.38
2024-01-06T02:05:54.454Z,-0.35
2024-01-06T02:08:21.129Z,-0.32
2024-01-06T02:10:50.246Z,-0.34
2024-01-06T02:13:17.269Z,-0.35
2024-01-06T02:15:43.988Z,-0.35
2024-01-06T02:18:10.734Z,-0.37
2024-01-06T02:20:38.647Z,-0.35
2024-01-06T02:23:05.181Z,-0.37
2024-01-06T02:25:31.884Z,-0.34
2024-01-06T02:27:58.371Z,-0.28
2024-01-06T02:30:25.682Z,-0.26
2024-01-06T02:32:52.413Z,-0.30
2024-01-06T02:35:19.504Z,-0.34
2024-01-06T02:37:48.768Z,-0.34
2024-01-06T02:40:15.449Z,-0.34
2024-01-06T02:42:42.726Z,-0.34
2024-01-06T02:45:15.131Z,-0.33
2024-01-06T02:47:42.118Z,-0.35
2024-01-06T02:50:08.904Z,-0.33
2024-01-06T02:52:35.673Z,-0.31
2024-01-06T02:55:02.647Z,-0.33
2024-01-06T02:57:31.073Z,-0.35
2024-01-06T02:59:58.200Z,-0.37
2024-01-06T03:02:24.525Z,-0.38
2024-01-06T03:04:51.574Z,-0.38
2024-01-06T03:07:17.886Z,-0.33
2024-01-06T03:09:44.961Z,-0.34
2024-01-06T03:12:11.424Z,-0.32
2024-01-06T03:14:38.595Z,-0.33
2024-01-06T03:17:05.019Z,-0.31
2024-01-06T03:19:32.266Z,-0.35
2024-01-06T03:21:58.656Z,-0.40
2024-01-06T03:24:27.273Z,-0.41
2024-01-06T03:26:53.558Z,-0.37
2024-01-06T03:29:20.202Z,-0.36
2024-01-06T03:31:47.145Z,-0.34
2024-01-06T03:34:14.044Z,-0.39
2024-01-06T03:36:41.729Z,-0.44
2024-01-06T03:39:08.696Z,-0.46
2024-01-06T03:41:35.421Z,-0.45
2024-01-06T03:44:01.891Z,-0.46
2024-01-06T03:46:28.630Z,-0.48
2024-01-06T03:48:54.979Z,-0.49
2024-01-06T03:51:22.472Z,-0.45
2024-01-06T03:53:48.852Z,-0.45
2024-01-06T03:56:15.358Z,-0.49
2024-01-06T03:58:41.648Z,-0.47
2024-01-06T04:01:08.358Z,-0.42
2024-01-06T04:03:34.852Z,-0.42
2024-01-06T04:06:02.048Z,-0.46
2024-01-06T04:08:28.873Z,-0.47
2024-01-06T04:10:55.204Z,-0.44
2024-01-06T04:13:21.903Z,-0.47
2024-01-06T04:15:48.263Z,-0.48
2024-01-06T04:18:14.763Z,-0.51
2024-01-06T04:20:41.213Z,-0.50
2024-01-06T04:23:07.500Z,-0.55
2024-01-06T04:25:33.793Z,-0.54
2024-01-06T04:28:00.564Z,-0.54
2024-01-06T04:30:27.091Z,-0.56
2024-01-06T04:32:53.962Z,-0.55
2024-01-06T04:35:21.567Z,-0.58
2024-01-06T04:37:48.642Z,-0.55
2024-01-06T04:40:14.988Z,-0.57
2024-01-06T04:42:41.379Z,-0.58
2024-01-06T04:45:08.536Z,-0.57
2024-01-06T04:47:35.008Z,-0.61
2024-01-06T04:50:01.429Z,-0.61
2024-01-06T04:52:28.284Z,-0.59
2024-01-06T04:54:54.626Z,-0.53
2024-01-06T04:57:22.289Z,-0.51
2024-01-06T04:59:49.110Z,-0.48
2024-01-06T05:02:16.077Z,-0.54
2024-01-06T05:04:42.832Z,-0.57
2024-01-06T05:07:09.120Z,-0.56
2024-01-06T05:09:35.466Z,-0.52
2024-01-06T05:12:02.235Z,-0.49
2024-01-06T05:14:28.543Z,-0.52
2024-01-06T05:16:55.360Z,-0.50
2024-01-06T05:19:22.407Z,-0.47
2024-01-06T05:21:49.280Z,-0.45
2024-01-06T05:24:16.027Z,-0.44
2024-01-06T05:26:42.614Z,-0.43
2024-01-06T05:29:08.922Z,-0.44
2024-01-06T05:31:35.539Z,-0.43
2024-01-06T05:34:01.958Z,-0.42
2024-01-06T05:36:28.681Z,-0.44
2024-01-06T05:38:55.022Z,-0.46
2024-01-06T05:41:21.645Z,-0.49
2024-01-06T05:43:48.505Z,-0.47
2024-01-06T05:46:21.563Z,-0.49
2024-01-06T05:48:48.258Z,-0.50
2024-01-06T05:51:14.962Z,-0.49
2024-01-06T05:53:43.060Z,-0.46
2024-01-06T05:56:10.468Z,-0.52
2024-01-06T05:58:36.985Z,-0.52
2024-01-06T06:01:04.221Z,-0.53
2024-01-06T06:03:30.739Z,-0.54
2024-01-06T06:05:57.681Z,-0.55
2024-01-06T06:08:24.040Z,-0.59
2024-01-06T06:11:03.188Z,-0.62
2024-01-06T06:13:29.784Z,-0.62
2024-01-06T06:15:56.902Z,-0.68
2024-01-06T06:18:23.493Z,-0.65
2024-01-06T06:20:49.992Z,-0.59
2024-01-06T06:23:16.681Z,-0.54
2024-01-06T06:25:43.733Z,-0.61
2024-01-06T06:28:10.717Z,-0.64
2024-01-06T06:30:37.162Z,-0.67
2024-01-06T06:33:03.657Z,-0.71
2024-01-06T06:35:30.436Z,-0.65
2024-01-06T06:37:56.735Z,-0.63
2024-01-06T06:40:23.037Z,-0.61
2024-01-06T06:42:49.675Z,-0.66
2024-01-06T06:45:16.157Z,-0.60
2024-01-06T06:47:43.039Z,-0.60
2024-01-06T06:50:10.570Z,-0.57
2024-01-06T06:52:37.057Z,-0.55
2024-01-06T06:55:03.632Z,-0.58
2024-01-06T06:57:30.029Z,-0.61
2024-01-06T06:59:56.695Z,-0.61
2024-01-06T07:02:24.641Z,-0.60
2024-01-06T07:04:50.957Z,-0.59
2024-01-06T07:07:17.761Z,-0.63
2024-01-06T07:09:44.170Z,-0.67
2024-01-06T07:12:10.894Z,-0.64
2024-01-06T07:14:38.312Z,-0.68
2024-01-06T07:17:05.390Z,-0.63
2024-01-06T07:19:33.040Z,-0.60
2024-01-06T07:21:59.788Z,-0.52
2024-01-06T07:24:26.722Z,-0.48
2024-01-06T07:26:53.648Z,-0.48
2024-01-06T07:29:20.027Z,-0.51
2024-01-06T07:31:46.834Z,-0.51
2024-01-06T07:34:13.244Z,-0.55
2024-01-06T07:36:41.348Z,-0.54
2024-01-06T07:39:07.707Z,-0.51
2024-01-06T07:41:34.491Z,-0.52
2024-01-06T07:44:02.487Z,-0.49
2024-01-06T07:46:29.272Z,-0.51
2024-01-06T07:48:55.813Z,-0.48
2024-01-06T07:51:22.565Z,-0.41
2024-01-06T07:53:48.887Z,-0.46
2024-01-06T07:56:15.350Z,-0.47
2024-01-06T07:58:42.009Z,-0.43
2024-01-06T08:01:08.343Z,-0.43
2024-01-06T08:03:35.038Z,-0.40
2024-01-06T08:06:01.733Z,-0.41
2024-01-06T08:08:28.121Z,-0.38
2024-01-06T08:10:54.490Z,-0.39
2024-01-06T08:13:20.885Z,-0.32
2024-01-06T08:15:47.649Z,-0.32
2024-01-06T08:18:14.155Z,-0.29
2024-01-06T08:20:40.987Z,-0.30
2024-01-06T08:23:07.708Z,-0.29
2024-01-06T08:25:34.568Z,-0.24
2024-01-06T08:28:01.481Z,-0.23
2024-01-06T08:30:28.422Z,-0.22
2024-01-06T08:32:54.838Z,-0.18
2024-01-06T08:35:21.695Z,-0.16
2024-01-06T08:37:47.982Z,-0.16
2024-01-06T08:40:14.286Z,-0.15
2024-01-06T08:42:40.675Z,-0.18
2024-01-06T08:45:07.071Z,-0.16
2024-01-06T08:47:34.286Z,-0.18
2024-01-06T08:50:00.829Z,-0.24
2024-01-06T08:52:27.598Z,-0.18
2024-01-06T08:54:54.942Z,-0.16
2024-01-06T08:57:21.802Z,-0.19
2024-01-06T08:59:48.448Z,-0.13
2024-01-06T09:02:15.047Z,-0.08
2024-01-06T09:04:41.333Z,-0.14
2024-01-06T09:07:08.047Z,-0.12
2024-01-06T09:09:34.495Z,-0.14
2024-01-06T09:12:01.857Z,-0.15
2024-01-06T09:14:28.200Z,-0.24
2024-01-06T09:16:55.352Z,-0.26
2024-01-06T09:19:23.094Z,-0.22
2024-01-06T09:21:49.975Z,-0.16
2024-01-06T09:24:16.325Z,-0.11
2024-01-06T09:26:42.665Z,-0.11
2024-01-06T09:29:10.814Z,-0.18
2024-01-06T09:31:37.784Z,-0.20
2024-01-06T09:34:04.750Z,-0.19
2024-01-06T09:36:32.008Z,-0.15
2024-01-06T09:38:58.587Z,-0.09
2024-01-06T09:41:25.831Z,-0.05
2024-01-06T09:43:52.739Z,-0.10
2024-01-06T09:46:25.849Z,-0.02
2024-01-06T09:48:53.550Z,0.03
2024-01-06T09:51:20.321Z,0.06
2024-01-06T09:54:00.590Z,0.11
2024-01-06T09:56:30.437Z,0.12
2024-01-06T09:58:57.464Z,0.11
2024-01-06T10:01:24.068Z,0.10
2024-01-06T10:03:50.574Z,0.18
2024-01-06T10:06:18.452Z,0.17
2024-01-06T10:08:45.473Z,0.15
2024-01-06T10:11:11.933Z,0.03
2024-01-06T10:13:41.829Z,0.06
2024-01-06T10:16:08.322Z,0.10
2024-01-06T10:18:37.181Z,0.05
2024-01-06T10:21:07.411Z,0.02
2024-01-06T10:23:34.169Z,0.03
2024-01-06T10:26:03.074Z,0.13
2024-01-06T10:28:31.982Z,0.14
2024-01-06T10:30:58.774Z,0.22
2024-01-06T10:33:27.115Z,0.20
2024-01-06T10:35:54.242Z,0.11
2024-01-06T10:38:20.932Z,0.13
2024-01-06T10:41:10.969Z,0.12
2024-01-06T10:43:39.592Z,0.14
2024-01-06T10:46:06.244Z,0.27
2024-01-06T10:48:34.861Z,0.25
2024-01-06T10:51:01.569Z,0.21
2024-01-06T10:53:27.991Z,0.23
2024-01-06T10:55:56.489Z,0.33
2024-01-06T10:58:23.326Z,0.37
2024-01-06T11:00:50.261Z,0.41
2024-01-06T11:03:17.588Z,0.37
2024-01-06T11:05:47.529Z,0.39
2024-01-06T11:08:14.184Z,0.36
2024-01-06T11:10:41.269Z,0.30
2024-01-06T11:13:13.467Z,0.20
2024-01-06T11:15:41.127Z,0.25
2024-01-06T11:18:08.016Z,0.32
2024-01-06T11:20:34.541Z,0.29
2024-01-06T11:23:18.752Z,0.21
2024-01-06T11:25:45.045Z,0.16
2024-01-06T11:28:13.726Z,0.17
2024-01-06T11:30:41.413Z,0.10
2024-01-06T11:33:09.977Z,0.11
2024-01-06T11:35:38.209Z,0.10
2024-01-06T11:38:05.195Z,0.00
2024-01-06T11:40:35.622Z,0.05
2024-01-06T11:43:06.700Z,0.06
2024-01-06T11:45:33.610Z,0.07
2024-01-06T11:48:03.002Z,0.14
2024-01-06T11:50:30.085Z,0.16
2024-01-06T11:52:56.507Z,0.15
2024-01-06T11:55:23.252Z,0.18
2024-01-06T11:57:50.916Z,0.16
2024-01-06T12:00:18.472Z,0.21
2024-01-06T12:02:44.861Z,0.23
2024-01-06T12:05:19.354Z,0.24
2024-01-06T12:07:55.826Z,0.17
2024-01-06T12:10:25.810Z,0.14
2024-01-06T12:12:59.763Z,0.10
2024-01-06T12:15:27.012Z,-0.03
2024-01-06T12:17:54.028Z,0.06
2024-01-06T12:20:20.510Z,0.05
2024-01-06T12:22:47.161Z,-0.01
2024-01-06T12:25:16.514Z,0.07
2024-01-06T12:27:43.994Z,0.07
2024-01-06T12:30:16.880Z,0.03
2024-01-06T12:32:44.254Z,-0.02
2024-01-06T12:35:10.609Z,-0.01
2024-01-06T12:37:42.213Z,-0.05
2024-01-06T12:40:17.979Z,0.05
2024-01-06T12:42:45.231Z,0.01
2024-01-06T12:45:12.109Z,0.09
2024-01-06T12:47:38.974Z,0.10
2024-01-06T12:50:05.636Z,0.14
2024-01-06T12:52:32.211Z,0.13
2024-01-06T12:54:58.839Z,0.10
2024-01-06T12:57:25.169Z,0.11
2024-01-06T12:59:52.053Z,0.15
2024-01-06T13:02:18.778Z,0.15
2024-01-06T13:04:45.476Z,0.19
2024-01-06T13:07:12.264Z,0.23
2024-01-06T13:09:38.730Z,0.10
2024-01-06T13:12:05.832Z,0.06
2024-01-06T13:14:32.604Z,0.12
2024-01-06T13:16:59.224Z,0.15
2024-01-06T13:19:26.198Z,0.05
2024-01-06T13:21:52.625Z,-0.02
2024-01-06T13:24:18.992Z,0.02
2024-01-06T13:26:45.770Z,0.02
2024-01-06T13:29:12.176Z,0.10
2024-01-06T13:31:38.762Z,0.04
2024-01-06T13:34:07.386Z,0.05
2024-01-06T13:36:34.183Z,-0.05
2024-01-06T13:39:01.351Z,-0.04
2024-01-06T13:41:28.251Z,-0.06
2024-01-06T13:43:55.597Z,0.00
2024-01-06T13:46:22.324Z,0.01
2024-01-06T13:48:48.763Z,0.06
2024-01-06T13:51:15.826Z,0.09
2024-01-06T13:53:42.217Z,0.12
2024-01-06T13:56:09.275Z,0.03
2024-01-06T13:58:37.137Z,0.09
2024-01-06T14:01:03.816Z,0.08
2024-01-06T14:03:30.476Z,0.01
2024-01-06T14:05:57.265Z,0.08
2024-01-06T14:08:25.170Z,0.12
2024-01-06T14:10:51.453Z,0.04
2024-01-06T14:13:18.079Z,0.00
2024-01-06T14:15:45.408Z,0.06
2024-01-06T14:18:13.415Z,0.04
2024-01-06T14:20:41.959Z,0.07
2024-01-06T14:23:08.751Z,0.05
2024-01-06T14:25:35.268Z,0.01
2024-01-06T14:28:01.621Z,0.00
2024-01-06T14:30:28.170Z,0.02
2024-01-06T14:32:55.019Z,0.02
2024-01-06T14:35:21.848Z,-0.01
2024-01-06T14:37:48.717Z,0.02
2024-01-06T14:40:15.609Z,-0.03
2024-01-06T14:42:41.989Z,-0.02
2024-01-06T14:45:09.693Z,-0.02
2024-01-06T14:47:36.470Z,-0.07
2024-01-06T14:50:02.959Z,-0.07
2024-01-06T14:52:29.849Z,-0.10
2024-01-06T14:54:56.573Z,-0.14
2024-01-06T14:57:22.913Z,-0.21
2024-01-06T14:59:49.635Z,-0.16
2024-01-06T15:02:16.225Z,-0.19
2024-01-06T15:04:42.697Z,-0.21
2024-01-06T15:07:09.560Z,-0.24
2024-01-06T15:09:39.544Z,-0.20
2024-01-06T15:12:06.311Z,-0.21
2024-01-06T15:14:33.026Z,-0.21
2024-01-06T15:16:59.317Z,-0.16
2024-01-06T15:19:28.825Z,-0.17
2024-01-06T15:21:55.952Z,-0.26
2024-01-06T15:24:25.069Z,-0.26
2024-01-06T15:26:52.400Z,-0.24
2024-01-06T15:29:19.399Z,-0.29
2024-01-06T15:31:45.898Z,-0.31
2024-01-06T15:34:12.772Z,-0.30
2024-01-06T15:36:39.526Z,-0.30
2024-01-06T15:39:06.362Z,-0.28
2024-01-06T15:41:33.233Z,-0.28
2024-01-06T15:43:59.540Z,-0.26
2024-01-06T15:46:26.198Z,-0.21
2024-01-06T15:48:52.603Z,-0.21
2024-01-06T15:51:19.377Z,-0.22
2024-01-06T15:53:46.055Z,-0.23
2024-01-06T15:56:12.591Z,-0.22
2024-01-06T15:58:38.910Z,-0.23
2024-01-06T16:01:07.259Z,-0.22
2024-01-06T16:03:34.275Z,-0.23
2024-01-06T16:06:01.079Z,-0.19
2024-01-06T16:08:27.976Z,-0.19
2024-01-06T16:10:55.137Z,-0.20
2024-01-06T16:13:21.995Z,-0.13
2024-01-06T16:15:48.433Z,-0.16
2024-01-06T16:18:15.294Z,-0.20
2024-01-06T16:20:42.117Z,-0.19
2024-01-06T16:23:10.994Z,-0.19
2024-01-06T16:25:38.873Z,-0.21
2024-01-06T16:28:05.413Z,-0.24
2024-01-06T16:30:32.196Z,-0.31
2024-01-06T16:33:01.267Z,-0.28
2024-01-06T16:35:28.209Z,-0.32
2024-01-06T16:37:54.513Z,-0.31
2024-01-06T16:40:21.061Z,-0.33
2024-01-06T16:42:47.412Z,-0.32
2024-01-06T16:45:14.653Z,-0.31
2024-01-06T16:47:41.190Z,-0.34
2024-01-06T16:50:07.878Z,-0.31
2024-01-06T16:52:34.225Z,-0.30
2024-01-06T16:55:00.961Z,-0.34
2024-01-06T16:57:29.472Z,-0.35
2024-01-06T16:59:55.934Z,-0.33
2024-01-06T17:02:22.272Z,-0.36
2024-01-06T17:04:48.699Z,-0.32
2024-01-06T17:07:15.300Z,-0.32
2024-01-06T17:09:41.666Z,-0.31
2024-01-06T17:12:08.230Z,-0.30
2024-01-06T17:14:34.534Z,-0.34
2024-01-06T17:17:00.888Z,-0.31
2024-01-06T17:19:27.572Z,-0.31
2024-01-06T17:21:53.943Z,-0.30
2024-01-06T17:24:20.667Z,-0.33
2024-01-06T17:26:47.031Z,-0.33
2024-01-06T17:29:13.475Z,-0.30
2024-01-06T17:31:40.129Z,-0.30
2024-01-06T17:34:06.819Z,-0.30
2024-01-06T17:36:33.191Z,-0.28
2024-01-06T17:38:59.508Z,-0.25
2024-01-06T17:41:29.274Z,-0.22
2024-01-06T17:43:58.599Z,-0.23
2024-01-06T17:46:28.180Z,-0.20
2024-01-06T17:48:54.616Z,-0.19
2024-01-06T17:51:24.848Z,-0.20
2024-01-06T17:53:52.623Z,-0.19
2024-01-06T17:56:19.683Z,-0.21
2024-01-06T17:58:47.132Z,-0.22
2024-01-06T18:01:16.050Z,-0.22
2024-01-06T18:03:42.578Z,-0.19
2024-01-06T18:06:08.956Z,-0.19
2024-01-06T18:08:35.270Z,-0.20
2024-01-06T18:11:01.586Z,-0.19
2024-01-06T18:13:27.883Z,-0.14
2024-01-06T18:15:54.662Z,-0.16
2024-01-06T18:18:21.182Z,-0.16
2024-01-06T18:20:50.289Z,-0.15
2024-01-06T18:23:16.966Z,-0.15
2024-01-06T18:25:43.266Z,-0.16
2024-01-06T18:28:09.963Z,-0.16
2024-01-06T18:30:37.221Z,-0.20
2024-01-06T18:33:03.758Z,-0.18
2024-01-06T18:35:30.247Z,-0.21
2024-01-06T18:37:56.938Z,-0.21
2024-01-06T18:40:24.385Z,-0.23
2024-01-06T18:42:51.913Z,-0.25
2024-01-06T18:45:18.903Z,-0.28
2024-01-06T18:47:46.582Z,-0.23
2024-01-06T18:50:13.641Z,-0.20
2024-01-06T18:52:40.059Z,-0.24
2024-01-06T18:55:06.867Z,-0.21
2024-01-06T18:57:33.898Z,-0.21
2024-01-06T19:00:00.743Z,-0.25
2024-01-06T19:02:27.053Z,-0.27
2024-01-06T19:04:54.160Z,-0.27
2024-01-06T19:07:20.836Z,-0.28
2024-01-06T19:09:47.170Z,-0.26
2024-01-06T19:12:13.549Z,-0.29
2024-01-06T19:14:39.843Z,-0.25
2024-01-06T19:17:06.146Z,-0.28
2024-01-06T19:19:34.443Z,-0.26
2024-01-06T19:22:01.080Z,-0.22
2024-01-06T19:24:32.916Z,-0.23
2024-01-06T19:27:06.525Z,-0.24
2024-01-06T19:29:32.874Z,-0.25
2024-01-06T19:31:59.316Z,-0.24
2024-01-06T19:34:26.510Z,-0.21
2024-01-06T19:36:53.015Z,-0.24
2024-01-06T19:39:19.948Z,-0.23
2024-01-06T19:41:46.249Z,-0.19
2024-01-06T19:44:12.929Z,-0.24
2024-01-06T19:46:40.085Z,-0.24
2024-01-06T19:49:06.994Z,-0.23
2024-01-06T19:51:33.957Z,-0.21
2024-01-06T19:54:00.654Z,-0.21
2024-01-06T19:56:26.953Z,-0.19
2024-01-06T19:58:53.734Z,-0.19
2024-01-06T20:01:20.157Z,-0.20
2024-01-06T20:03:46.623Z,-0.19
2024-01-06T20:06:14.760Z,-0.20
2024-01-06T20:08:41.088Z,-0.27
2024-01-06T20:11:07.710Z,-0.23
2024-01-06T20:13:34.518Z,-0.18
2024-01-06T20:16:02.654Z,-0.18
2024-01-06T20:18:30.937Z,-0.16
2024-01-06T20:20:58.055Z,-0.17
2024-01-06T20:23:25.421Z,-0.21
2024-01-06T20:25:52.153Z,-0.20
2024-01-06T20:28:18.481Z,-0.18
2024-01-06T20:30:44.948Z,-0.20
2024-01-06T20:33:12.089Z,-0.22
2024-01-06T20:35:38.571Z,-0.22
2024-01-06T20:38:05.360Z,-0.24
2024-01-06T20:40:32.996Z,-0.22
2024-01-06T20:42:59.705Z,-0.28
2024-01-06T20:45:28.154Z,-0.31
2024-01-06T20:47:54.988Z,-0.34
2024-01-06T20:50:21.851Z,-0.36
2024-01-06T20:52:48.648Z,-0.38
2024-01-06T20:55:15.095Z,-0.39
2024-01-06T20:57:41.795Z,-0.41
2024-01-06T21:00:08.851Z,-0.41
2024-01-06T21:02:35.177Z,-0.43
2024-01-06T21:05:06.187Z,-0.41
2024-01-06T21:07:32.908Z,-0.41
2024-01-06T21:10:02.682Z,-0.41
2024-01-06T21:12:29.037Z,-0.40
2024-01-06T21:14:56.109Z,-0.40
2024-01-06T21:17:22.855Z,-0.44
2024-01-06T21:19:49.699Z,-0.42
2024-01-06T21:22:16.070Z,-0.48
2024-01-06T21:24:42.874Z,-0.47
2024-01-06T21:27:09.196Z,-0.48
2024-01-06T21:29:35.712Z,-0.51
2024-01-06T21:32:02.458Z,-0.51
2024-01-06T21:34:29.322Z,-0.57
2024-01-06T21:36:56.173Z,-0.60
2024-01-06T21:39:22.576Z,-0.61
2024-01-06T21:41:49.966Z,-0.61
2024-01-06T21:44:16.299Z,-0.60
2024-01-06T21:46:42.972Z,-0.62
2024-01-06T21:49:09.411Z,-0.63
2024-01-06T21:51:46.872Z,-0.60
2024-01-06T21:54:13.176Z,-0.62
2024-01-06T21:56:39.706Z,-0.64
2024-01-06T21:59:06.219Z,-0.63
2024-01-06T22:01:32.863Z,-0.65
2024-01-06T22:04:01.477Z,-0.61
2024-01-06T22:06:27.839Z,-0.62
2024-01-06T22:08:54.162Z,-0.63
2024-01-06T22:11:20.460Z,-0.66
2024-01-06T22:13:47.074Z,-0.66
2024-01-06T22:16:13.470Z,-0.72
2024-01-06T22:18:40.119Z,-0.70
2024-01-06T22:21:06.562Z,-0.70
2024-01-06T22:23:32.873Z,-0.68
2024-01-06T22:25:59.459Z,-0.67
2024-01-06T22:28:26.125Z,-0.67
2024-01-06T22:30:53.138Z,-0.68
2024-01-06T22:33:19.607Z,-0.69
2024-01-06T22:35:46.282Z,-0.68
2024-01-06T22:38:12.679Z,-0.68
2024-01-06T22:40:39.270Z,-0.69
2024-01-06T22:43:06.198Z,-0.68
2024-01-06T22:45:32.808Z,-0.70
2024-01-06T22:47:59.708Z,-0.70
2024-01-06T22:50:26.877Z,-0.75
2024-01-06T22:52:53.389Z,-0.75
2024-01-06T22:55:19.690Z,-0.79
2024-01-06T22:57:46.878Z,-0.82
2024-01-06T23:00:17.772Z,-0.80
2024-01-06T23:02:45.486Z,-0.85
2024-01-06T23:05:14.422Z,-0.80
2024-01-06T23:07:41.171Z,-0.76
2024-01-06T23:10:08.187Z,-0.78
2024-01-06T23:12:34.549Z,-0.75
2024-01-06T23:15:01.265Z,-0.74
2024-01-06T23:17:27.756Z,-0.76
2024-01-06T23:19:54.578Z,-0.74
2024-01-06T23:22:21.437Z,-0.73
2024-01-06T23:24:47.725Z,-0.71
2024-01-06T23:27:14.983Z,-0.70
2024-01-06T23:29:41.742Z,-0.73
2024-01-06T23:32:09.230Z,-0.71
2024-01-06T23:34:42.295Z,-0.71
2024-01-06T23:37:11.213Z,-0.69
2024-01-06T23:39:37.697Z,-0.69
2024-01-06T23:42:06.380Z,-0.67
2024-01-06T23:44:33.424Z,-0.67
2024-01-06T23:46:59.764Z,-0.67
2024-01-06T23:49:27.451Z,-0.67
2024-01-06T23:51:53.986Z,-0.66
2024-01-06T23:54:20.817Z,-0.64
2024-01-06T23:56:47.154Z,-0.65
2024-01-06T23:59:14.484Z,-0.69
